sensor_id;sensor_type;location;lat;lon;timestamp;P1;durP1;ratioP1;P2;durP2;ratioP2
69989;SDS011;57331;52.054;5.294;2024-01-16T00:00:45;8.68;;;2.40;;
69989;SDS011;57331;52.054;5.294;2024-01-16T00:03:13;18.60;;;2.28;;
69989;SDS011;57331;52.054;5.294;2024-01-16T00:05:40;5.95;;;2.05;;
69989;SDS011;57331;52.054;5.294;2024-01-16T00:08:07;9.40;;;1.63;;
69989;SDS011;57331;52.054;5.294;2024-01-16T00:10:35;7.17;;;1.37;;
69989;SDS011;57331;52.054;5.294;2024-01-16T00:13:02;12.60;;;2.03;;
69989;SDS011;57331;52.054;5.294;2024-01-16T00:15:29;9.50;;;1.70;;
69989;SDS011;57331;52.054;5.294;2024-01-16T00:17:56;14.73;;;1.73;;
69989;SDS011;57331;52.054;5.294;2024-01-16T00:20:24;7.40;;;1.60;;
69989;SDS011;57331;52.054;5.294;2024-01-16T00:22:52;7.67;;;1.40;;
69989;SDS011;57331;52.054;5.294;2024-01-16T00:25:19;5.20;;;1.48;;
69989;SDS011;57331;52.054;5.294;2024-01-16T00:27:46;11.68;;;1.92;;
69989;SDS011;57331;52.054;5.294;2024-01-16T00:30:14;8.80;;;2.17;;
69989;SDS011;57331;52.054;5.294;2024-01-16T00:32:41;15.40;;;1.92;;
69989;SDS011;57331;52.054;5.294;2024-01-16T00:35:09;8.47;;;2.00;;
69989;SDS011;57331;52.054;5.294;2024-01-16T00:37:36;12.50;;;2.10;;
69989;SDS011;57331;52.054;5.294;2024-01-16T00:40:04;11.27;;;2.00;;
69989;SDS011;57331;52.054;5.294;2024-01-16T00:42:31;10.57;;;3.10;;
69989;SDS011;57331;52.054;5.294;2024-01-16T00:44:59;14.68;;;4.18;;
69989;SDS011;57331;52.054;5.294;2024-01-16T00:47:26;20.73;;;6.03;;
69989;SDS011;57331;52.054;5.294;2024-01-16T00:49:54;17.02;;;4.45;;
69989;SDS011;57331;52.054;5.294;2024-01-16T00:52:21;12.10;;;3.13;;
69989;SDS011;57331;52.054;5.294;2024-01-16T00:54:48;13.45;;;3.55;;
69989;SDS011;57331;52.054;5.294;2024-01-16T00:57:15;15.20;;;4.75;;
69989;SDS011;57331;52.054;5.294;2024-01-16T00:59:48;20.63;;;5.93;;
69989;SDS011;57331;52.054;5.294;2024-01-16T01:02:15;13.45;;;4.85;;
69989;SDS011;57331;52.054;5.294;2024-01-16T01:04:43;14.25;;;2.72;;
69989;SDS011;57331;52.054;5.294;2024-01-16T01:07:14;11.80;;;2.53;;
69989;SDS011;57331;52.054;5.294;2024-01-16T01:09:41;14.77;;;2.25;;
69989;SDS011;57331;52.054;5.294;2024-01-16T01:12:08;7.50;;;2.10;;
69989;SDS011;57331;52.054;5.294;2024-01-16T01:14:36;10.27;;;2.35;;
69989;SDS011;57331;52.054;5.294;2024-01-16T01:17:03;12.38;;;2.13;;
69989;SDS011;57331;52.054;5.294;2024-01-16T01:19:31;14.60;;;2.25;;
69989;SDS011;57331;52.054;5.294;2024-01-16T01:21:59;8.15;;;1.70;;
69989;SDS011;57331;52.054;5.294;2024-01-16T01:24:26;8.27;;;1.70;;
69989;SDS011;57331;52.054;5.294;2024-01-16T01:26:53;7.72;;;1.80;;
69989;SDS011;57331;52.054;5.294;2024-01-16T01:29:20;11.38;;;1.90;;
69989;SDS011;57331;52.054;5.294;2024-01-16T01:31:48;6.57;;;1.77;;
69989;SDS011;57331;52.054;5.294;2024-01-16T01:34:15;9.15;;;2.00;;
69989;SDS011;57331;52.054;5.294;2024-01-16T01:36:42;7.67;;;1.60;;
69989;SDS011;57331;52.054;5.294;2024-01-16T01:39:10;7.35;;;1.90;;
69989;SDS011;57331;52.054;5.294;2024-01-16T01:41:38;16.05;;;2.05;;
69989;SDS011;57331;52.054;5.294;2024-01-16T01:44:05;5.63;;;1.60;;
69989;SDS011;57331;52.054;5.294;2024-01-16T01:46:33;22.10;;;4.57;;
69989;SDS011;57331;52.054;5.294;2024-01-16T01:49:01;15.80;;;4.53;;
69989;SDS011;57331;52.054;5.294;2024-01-16T01:51:29;10.60;;;3.30;;
69989;SDS011;57331;52.054;5.294;2024-01-16T01:53:57;6.10;;;1.90;;
69989;SDS011;57331;52.054;5.294;2024-01-16T01:56:25;9.05;;;1.85;;
69989;SDS011;57331;52.054;5.294;2024-01-16T01:58:54;4.70;;;1.70;;
69989;SDS011;57331;52.054;5.294;2024-01-16T02:01:25;4.63;;;1.57;;
69989;SDS011;57331;52.054;5.294;2024-01-16T02:03:55;7.15;;;1.90;;
69989;SDS011;57331;52.054;5.294;2024-01-16T02:06:23;7.38;;;1.63;;
69989;SDS011;57331;52.054;5.294;2024-01-16T02:08:50;4.25;;;1.20;;
69989;SDS011;57331;52.054;5.294;2024-01-16T02:11:18;4.57;;;1.20;;
69989;SDS011;57331;52.054;5.294;2024-01-16T02:13:45;3.57;;;1.17;;
69989;SDS011;57331;52.054;5.294;2024-01-16T02:16:19;3.10;;;0.98;;
69989;SDS011;57331;52.054;5.294;2024-01-16T02:18:48;5.18;;;1.05;;
69989;SDS011;57331;52.054;5.294;2024-01-16T02:21:17;3.70;;;1.00;;
69989;SDS011;57331;52.054;5.294;2024-01-16T02:23:46;2.25;;;1.00;;
69989;SDS011;57331;52.054;5.294;2024-01-16T02:26:14;5.40;;;1.40;;
69989;SDS011;57331;52.054;5.294;2024-01-16T02:28:45;6.40;;;1.25;;
69989;SDS011;57331;52.054;5.294;2024-01-16T02:31:13;9.88;;;1.15;;
69989;SDS011;57331;52.054;5.294;2024-01-16T02:33:40;5.05;;;1.52;;
69989;SDS011;57331;52.054;5.294;2024-01-16T02:36:07;4.80;;;1.30;;
69989;SDS011;57331;52.054;5.294;2024-01-16T02:38:35;5.97;;;1.23;;
69989;SDS011;57331;52.054;5.294;2024-01-16T02:41:02;4.30;;;1.10;;
69989;SDS011;57331;52.054;5.294;2024-01-16T02:43:30;5.25;;;1.38;;
69989;SDS011;57331;52.054;5.294;2024-01-16T02:45:57;3.58;;;1.30;;
69989;SDS011;57331;52.054;5.294;2024-01-16T02:48:24;5.30;;;1.23;;
69989;SDS011;57331;52.054;5.294;2024-01-16T02:50:52;5.53;;;1.40;;
69989;SDS011;57331;52.054;5.294;2024-01-16T02:53:19;5.30;;;1.10;;
69989;SDS011;57331;52.054;5.294;2024-01-16T02:55:46;6.25;;;1.00;;
69989;SDS011;57331;52.054;5.294;2024-01-16T02:58:14;2.05;;;1.00;;
69989;SDS011;57331;52.054;5.294;2024-01-16T03:00:42;3.45;;;1.38;;
69989;SDS011;57331;52.054;5.294;2024-01-16T03:03:10;5.50;;;1.10;;
69989;SDS011;57331;52.054;5.294;2024-01-16T03:05:37;2.63;;;1.10;;
69989;SDS011;57331;52.054;5.294;2024-01-16T03:08:04;8.82;;;1.50;;
69989;SDS011;57331;52.054;5.294;2024-01-16T03:10:32;5.28;;;1.50;;
69989;SDS011;57331;52.054;5.294;2024-01-16T03:12:59;4.97;;;1.35;;
69989;SDS011;57331;52.054;5.294;2024-01-16T03:15:26;3.73;;;1.10;;
69989;SDS011;57331;52.054;5.294;2024-01-16T03:17:53;4.25;;;1.20;;
69989;SDS011;57331;52.054;5.294;2024-01-16T03:20:21;2.72;;;1.13;;
69989;SDS011;57331;52.054;5.294;2024-01-16T03:22:49;6.25;;;1.50;;
69989;SDS011;57331;52.054;5.294;2024-01-16T03:25:16;4.07;;;1.10;;
69989;SDS011;57331;52.054;5.294;2024-01-16T03:27:44;7.70;;;1.10;;
69989;SDS011;57331;52.054;5.294;2024-01-16T03:30:11;1.92;;;0.98;;
69989;SDS011;57331;52.054;5.294;2024-01-16T03:32:39;5.65;;;1.30;;
69989;SDS011;57331;52.054;5.294;2024-01-16T03:35:06;6.88;;;1.17;;
69989;SDS011;57331;52.054;5.294;2024-01-16T03:37:34;6.28;;;1.10;;
69989;SDS011;57331;52.054;5.294;2024-01-16T03:40:01;4.63;;;1.20;;
69989;SDS011;57331;52.054;5.294;2024-01-16T03:42:28;6.43;;;1.20;;
69989;SDS011;57331;52.054;5.294;2024-01-16T03:44:55;6.10;;;1.25;;
69989;SDS011;57331;52.054;5.294;2024-01-16T03:47:23;4.20;;;1.15;;
69989;SDS011;57331;52.054;5.294;2024-01-16T03:49:50;2.88;;;1.00;;
69989;SDS011;57331;52.054;5.294;2024-01-16T03:52:18;3.67;;;0.80;;
69989;SDS011;57331;52.054;5.294;2024-01-16T03:54:46;7.05;;;1.20;;
69989;SDS011;57331;52.054;5.294;2024-01-16T03:57:13;3.03;;;1.00;;
69989;SDS011;57331;52.054;5.294;2024-01-16T03:59:40;1.83;;;1.00;;
69989;SDS011;57331;52.054;5.294;2024-01-16T04:02:07;4.10;;;1.13;;
69989;SDS011;57331;52.054;5.294;2024-01-16T04:04:35;3.07;;;1.03;;
69989;SDS011;57331;52.054;5.294;2024-01-16T04:07:02;9.85;;;1.67;;
69989;SDS011;57331;52.054;5.294;2024-01-16T04:09:29;6.55;;;1.40;;
69989;SDS011;57331;52.054;5.294;2024-01-16T04:11:56;5.05;;;1.10;;
69989;SDS011;57331;52.054;5.294;2024-01-16T04:14:23;9.88;;;1.58;;
69989;SDS011;57331;52.054;5.294;2024-01-16T04:16:51;3.90;;;1.30;;
69989;SDS011;57331;52.054;5.294;2024-01-16T04:19:18;8.02;;;1.23;;
69989;SDS011;57331;52.054;5.294;2024-01-16T04:21:46;5.00;;;1.40;;
69989;SDS011;57331;52.054;5.294;2024-01-16T04:24:13;5.60;;;1.20;;
69989;SDS011;57331;52.054;5.294;2024-01-16T04:26:40;7.55;;;1.33;;
69989;SDS011;57331;52.054;5.294;2024-01-16T04:29:08;7.70;;;1.37;;
69989;SDS011;57331;52.054;5.294;2024-01-16T04:31:40;9.07;;;1.70;;
69989;SDS011;57331;52.054;5.294;2024-01-16T04:34:07;14.07;;;2.22;;
69989;SDS011;57331;52.054;5.294;2024-01-16T04:36:35;4.15;;;1.42;;
69989;SDS011;57331;52.054;5.294;2024-01-16T04:39:02;7.38;;;1.70;;
69989;SDS011;57331;52.054;5.294;2024-01-16T04:41:30;8.27;;;1.87;;
69989;SDS011;57331;52.054;5.294;2024-01-16T04:43:57;2.70;;;1.20;;
69989;SDS011;57331;52.054;5.294;2024-01-16T04:46:24;10.27;;;1.63;;
69989;SDS011;57331;52.054;5.294;2024-01-16T04:48:51;4.38;;;1.50;;
69989;SDS011;57331;52.054;5.294;2024-01-16T04:51:19;3.28;;;1.40;;
69989;SDS011;57331;52.054;5.294;2024-01-16T04:53:46;5.37;;;1.80;;
69989;SDS011;57331;52.054;5.294;2024-01-16T04:56:13;4.38;;;1.90;;
69989;SDS011;57331;52.054;5.294;2024-01-16T04:58:41;7.55;;;1.83;;
69989;SDS011;57331;52.054;5.294;2024-01-16T05:01:08;6.22;;;1.75;;
69989;SDS011;57331;52.054;5.294;2024-01-16T05:03:35;5.10;;;1.60;;
69989;SDS011;57331;52.054;5.294;2024-01-16T05:06:02;3.77;;;1.70;;
69989;SDS011;57331;52.054;5.294;2024-01-16T05:08:30;6.47;;;2.08;;
69989;SDS011;57331;52.054;5.294;2024-01-16T05:10:57;5.72;;;1.75;;
69989;SDS011;57331;52.054;5.294;2024-01-16T05:13:24;6.45;;;1.80;;
69989;SDS011;57331;52.054;5.294;2024-01-16T05:15:52;6.47;;;1.73;;
69989;SDS011;57331;52.054;5.294;2024-01-16T05:18:19;4.00;;;1.70;;
69989;SDS011;57331;52.054;5.294;2024-01-16T05:20:47;4.68;;;1.80;;
69989;SDS011;57331;52.054;5.294;2024-01-16T05:23:14;7.15;;;2.28;;
69989;SDS011;57331;52.054;5.294;2024-01-16T05:25:42;8.32;;;2.28;;
69989;SDS011;57331;52.054;5.294;2024-01-16T05:28:10;5.28;;;1.83;;
69989;SDS011;57331;52.054;5.294;2024-01-16T05:30:37;5.70;;;2.17;;
69989;SDS011;57331;52.054;5.294;2024-01-16T05:33:04;7.47;;;2.00;;
69989;SDS011;57331;52.054;5.294;2024-01-16T05:35:32;8.00;;;2.00;;
69989;SDS011;57331;52.054;5.294;2024-01-16T05:37:59;5.63;;;2.15;;
69989;SDS011;57331;52.054;5.294;2024-01-16T05:40:26;8.15;;;2.20;;
69989;SDS011;57331;52.054;5.294;2024-01-16T05:42:53;6.87;;;2.10;;
69989;SDS011;57331;52.054;5.294;2024-01-16T05:45:22;9.13;;;2.60;;
69989;SDS011;57331;52.054;5.294;2024-01-16T05:47:50;5.57;;;2.40;;
69989;SDS011;57331;52.054;5.294;2024-01-16T05:50:17;6.28;;;2.13;;
69989;SDS011;57331;52.054;5.294;2024-01-16T05:52:45;6.45;;;2.40;;
69989;SDS011;57331;52.054;5.294;2024-01-16T05:55:12;6.13;;;2.20;;
69989;SDS011;57331;52.054;5.294;2024-01-16T05:57:39;7.72;;;2.55;;
69989;SDS011;57331;52.054;5.294;2024-01-16T06:00:08;9.63;;;2.53;;
69989;SDS011;57331;52.054;5.294;2024-01-16T06:02:35;6.88;;;2.50;;
69989;SDS011;57331;52.054;5.294;2024-01-16T06:05:02;9.30;;;2.60;;
69989;SDS011;57331;52.054;5.294;2024-01-16T06:07:30;7.97;;;2.63;;
69989;SDS011;57331;52.054;5.294;2024-01-16T06:09:57;9.40;;;2.85;;
69989;SDS011;57331;52.054;5.294;2024-01-16T06:12:24;10.10;;;3.08;;
69989;SDS011;57331;52.054;5.294;2024-01-16T06:14:51;8.73;;;3.60;;
69989;SDS011;57331;52.054;5.294;2024-01-16T06:17:18;8.52;;;3.20;;
69989;SDS011;57331;52.054;5.294;2024-01-16T06:19:46;11.13;;;3.63;;
69989;SDS011;57331;52.054;5.294;2024-01-16T06:22:13;9.07;;;3.60;;
69989;SDS011;57331;52.054;5.294;2024-01-16T06:24:40;9.52;;;3.90;;
69989;SDS011;57331;52.054;5.294;2024-01-16T06:27:08;11.50;;;4.97;;
69989;SDS011;57331;52.054;5.294;2024-01-16T06:29:35;13.73;;;4.65;;
69989;SDS011;57331;52.054;5.294;2024-01-16T06:32:03;12.13;;;5.00;;
69989;SDS011;57331;52.054;5.294;2024-01-16T06:34:30;12.35;;;5.43;;
69989;SDS011;57331;52.054;5.294;2024-01-16T06:36:57;12.23;;;5.03;;
69989;SDS011;57331;52.054;5.294;2024-01-16T06:39:24;11.52;;;4.65;;
69989;SDS011;57331;52.054;5.294;2024-01-16T06:41:51;9.93;;;4.68;;
69989;SDS011;57331;52.054;5.294;2024-01-16T06:44:19;13.07;;;4.80;;
69989;SDS011;57331;52.054;5.294;2024-01-16T06:46:46;10.38;;;4.57;;
69989;SDS011;57331;52.054;5.294;2024-01-16T06:49:13;13.68;;;5.60;;
69989;SDS011;57331;52.054;5.294;2024-01-16T06:51:40;12.18;;;4.55;;
69989;SDS011;57331;52.054;5.294;2024-01-16T06:54:07;15.32;;;5.00;;
69989;SDS011;57331;52.054;5.294;2024-01-16T06:56:35;15.07;;;5.43;;
69989;SDS011;57331;52.054;5.294;2024-01-16T06:59:02;15.02;;;6.38;;
69989;SDS011;57331;52.054;5.294;2024-01-16T07:01:31;15.43;;;5.07;;
69989;SDS011;57331;52.054;5.294;2024-01-16T07:03:58;48.35;;;18.67;;
69989;SDS011;57331;52.054;5.294;2024-01-16T07:06:26;16.88;;;5.57;;
69989;SDS011;57331;52.054;5.294;2024-01-16T07:08:54;21.10;;;5.40;;
69989;SDS011;57331;52.054;5.294;2024-01-16T07:11:21;15.90;;;4.47;;
69989;SDS011;57331;52.054;5.294;2024-01-16T07:13:50;20.98;;;4.30;;
69989;SDS011;57331;52.054;5.294;2024-01-16T07:16:18;14.15;;;4.88;;
69989;SDS011;57331;52.054;5.294;2024-01-16T07:18:45;14.85;;;4.90;;
69989;SDS011;57331;52.054;5.294;2024-01-16T07:21:17;16.23;;;4.10;;
69989;SDS011;57331;52.054;5.294;2024-01-16T07:23:44;10.93;;;4.20;;
69989;SDS011;57331;52.054;5.294;2024-01-16T07:26:12;14.57;;;3.88;;
69989;SDS011;57331;52.054;5.294;2024-01-16T07:28:39;11.30;;;4.00;;
69989;SDS011;57331;52.054;5.294;2024-01-16T07:31:06;14.70;;;4.95;;
69989;SDS011;57331;52.054;5.294;2024-01-16T07:33:35;9.37;;;3.80;;
69989;SDS011;57331;52.054;5.294;2024-01-16T07:36:03;18.90;;;7.45;;
69989;SDS011;57331;52.054;5.294;2024-01-16T07:38:31;14.98;;;4.85;;
69989;SDS011;57331;52.054;5.294;2024-01-16T07:40:59;13.85;;;4.68;;
69989;SDS011;57331;52.054;5.294;2024-01-16T07:43:26;11.65;;;4.55;;
69989;SDS011;57331;52.054;5.294;2024-01-16T07:45:53;8.73;;;3.33;;
69989;SDS011;57331;52.054;5.294;2024-01-16T07:48:21;17.08;;;4.38;;
69989;SDS011;57331;52.054;5.294;2024-01-16T07:50:49;13.52;;;5.25;;
69989;SDS011;57331;52.054;5.294;2024-01-16T07:53:17;17.58;;;5.07;;
69989;SDS011;57331;52.054;5.294;2024-01-16T07:55:44;12.15;;;4.63;;
69989;SDS011;57331;52.054;5.294;2024-01-16T07:58:11;13.53;;;5.17;;
69989;SDS011;57331;52.054;5.294;2024-01-16T08:00:39;12.88;;;4.47;;
69989;SDS011;57331;52.054;5.294;2024-01-16T08:03:07;27.20;;;5.60;;
69989;SDS011;57331;52.054;5.294;2024-01-16T08:05:37;13.73;;;5.15;;
69989;SDS011;57331;52.054;5.294;2024-01-16T08:08:05;17.58;;;5.80;;
69989;SDS011;57331;52.054;5.294;2024-01-16T08:10:36;13.93;;;4.80;;
69989;SDS011;57331;52.054;5.294;2024-01-16T08:13:03;21.63;;;5.68;;
69989;SDS011;57331;52.054;5.294;2024-01-16T08:15:30;15.52;;;4.97;;
69989;SDS011;57331;52.054;5.294;2024-01-16T08:17:58;15.98;;;5.15;;
69989;SDS011;57331;52.054;5.294;2024-01-16T08:20:25;12.80;;;4.38;;
69989;SDS011;57331;52.054;5.294;2024-01-16T08:22:52;12.63;;;3.80;;
69989;SDS011;57331;52.054;5.294;2024-01-16T08:25:20;12.35;;;3.80;;
69989;SDS011;57331;52.054;5.294;2024-01-16T08:27:47;14.45;;;4.68;;
69989;SDS011;57331;52.054;5.294;2024-01-16T08:30:14;16.73;;;4.78;;
69989;SDS011;57331;52.054;5.294;2024-01-16T08:32:42;14.60;;;4.10;;
69989;SDS011;57331;52.054;5.294;2024-01-16T08:35:09;11.53;;;4.37;;
69989;SDS011;57331;52.054;5.294;2024-01-16T08:37:37;14.02;;;3.85;;
69989;SDS011;57331;52.054;5.294;2024-01-16T08:40:04;15.55;;;4.47;;
69989;SDS011;57331;52.054;5.294;2024-01-16T08:42:32;14.93;;;3.65;;
69989;SDS011;57331;52.054;5.294;2024-01-16T08:44:59;13.25;;;3.50;;
69989;SDS011;57331;52.054;5.294;2024-01-16T08:47:27;16.83;;;4.10;;
69989;SDS011;57331;52.054;5.294;2024-01-16T08:49:55;12.48;;;4.18;;
69989;SDS011;57331;52.054;5.294;2024-01-16T08:52:22;15.02;;;3.90;;
69989;SDS011;57331;52.054;5.294;2024-01-16T08:54:50;10.77;;;3.90;;
69989;SDS011;57331;52.054;5.294;2024-01-16T08:57:17;12.48;;;4.22;;
69989;SDS011;57331;52.054;5.294;2024-01-16T08:59:46;7.73;;;3.07;;
69989;SDS011;57331;52.054;5.294;2024-01-16T09:02:13;11.35;;;3.58;;
69989;SDS011;57331;52.054;5.294;2024-01-16T09:04:40;9.32;;;2.60;;
69989;SDS011;57331;52.054;5.294;2024-01-16T09:07:08;8.77;;;3.95;;
69989;SDS011;57331;52.054;5.294;2024-01-16T09:09:35;7.57;;;2.75;;
69989;SDS011;57331;52.054;5.294;2024-01-16T09:12:02;13.40;;;3.80;;
69989;SDS011;57331;52.054;5.294;2024-01-16T09:14:30;6.93;;;3.05;;
69989;SDS011;57331;52.054;5.294;2024-01-16T09:16:57;11.55;;;3.72;;
69989;SDS011;57331;52.054;5.294;2024-01-16T09:19:24;7.53;;;2.85;;
69989;SDS011;57331;52.054;5.294;2024-01-16T09:21:53;9.60;;;3.45;;
69989;SDS011;57331;52.054;5.294;2024-01-16T09:24:20;14.13;;;3.77;;
69989;SDS011;57331;52.054;5.294;2024-01-16T09:26:47;13.02;;;4.10;;
69989;SDS011;57331;52.054;5.294;2024-01-16T09:29:15;10.23;;;3.42;;
69989;SDS011;57331;52.054;5.294;2024-01-16T09:31:42;10.27;;;4.00;;
69989;SDS011;57331;52.054;5.294;2024-01-16T09:34:10;9.35;;;3.80;;
69989;SDS011;57331;52.054;5.294;2024-01-16T09:36:39;15.73;;;3.33;;
69989;SDS011;57331;52.054;5.294;2024-01-16T09:39:07;13.35;;;3.70;;
69989;SDS011;57331;52.054;5.294;2024-01-16T09:41:34;9.07;;;3.22;;
69989;SDS011;57331;52.054;5.294;2024-01-16T09:44:01;10.60;;;3.33;;
69989;SDS011;57331;52.054;5.294;2024-01-16T09:46:29;15.30;;;3.50;;
69989;SDS011;57331;52.054;5.294;2024-01-16T09:48:58;7.93;;;3.10;;
69989;SDS011;57331;52.054;5.294;2024-01-16T09:51:26;10.27;;;3.13;;
69989;SDS011;57331;52.054;5.294;2024-01-16T09:53:53;17.00;;;4.20;;
69989;SDS011;57331;52.054;5.294;2024-01-16T09:56:21;11.20;;;3.45;;
69989;SDS011;57331;52.054;5.294;2024-01-16T09:59:05;12.30;;;4.13;;
69989;SDS011;57331;52.054;5.294;2024-01-16T10:01:34;9.27;;;3.40;;
69989;SDS011;57331;52.054;5.294;2024-01-16T10:04:02;8.77;;;2.72;;
69989;SDS011;57331;52.054;5.294;2024-01-16T10:06:30;9.57;;;3.33;;
69989;SDS011;57331;52.054;5.294;2024-01-16T10:08:59;12.73;;;4.00;;
69989;SDS011;57331;52.054;5.294;2024-01-16T10:11:27;13.48;;;3.50;;
69989;SDS011;57331;52.054;5.294;2024-01-16T10:13:56;9.43;;;3.50;;
69989;SDS011;57331;52.054;5.294;2024-01-16T10:19:32;10.23;;;3.70;;
69989;SDS011;57331;52.054;5.294;2024-01-16T10:22:14;11.38;;;3.40;;
69989;SDS011;57331;52.054;5.294;2024-01-16T10:25:12;12.70;;;4.05;;
69989;SDS011;57331;52.054;5.294;2024-01-16T10:27:43;9.47;;;3.93;;
69989;SDS011;57331;52.054;5.294;2024-01-16T10:30:10;9.73;;;3.38;;
69989;SDS011;57331;52.054;5.294;2024-01-16T10:32:39;11.40;;;3.42;;
69989;SDS011;57331;52.054;5.294;2024-01-16T10:35:13;12.55;;;3.35;;
69989;SDS011;57331;52.054;5.294;2024-01-16T10:37:46;6.68;;;3.50;;
69989;SDS011;57331;52.054;5.294;2024-01-16T10:42:42;9.63;;;4.35;;
69989;SDS011;57331;52.054;5.294;2024-01-16T10:45:18;11.13;;;3.97;;
69989;SDS011;57331;52.054;5.294;2024-01-16T10:47:46;14.20;;;3.65;;
69989;SDS011;57331;52.054;5.294;2024-01-16T10:50:14;7.65;;;2.85;;
69989;SDS011;57331;52.054;5.294;2024-01-16T10:52:46;7.97;;;3.63;;
69989;SDS011;57331;52.054;5.294;2024-01-16T10:55:17;10.50;;;3.92;;
69989;SDS011;57331;52.054;5.294;2024-01-16T10:57:48;8.68;;;3.63;;
69989;SDS011;57331;52.054;5.294;2024-01-16T11:00:18;12.55;;;3.40;;
69989;SDS011;57331;52.054;5.294;2024-01-16T11:03:01;11.27;;;3.97;;
69989;SDS011;57331;52.054;5.294;2024-01-16T11:05:32;9.30;;;3.47;;
69989;SDS011;57331;52.054;5.294;2024-01-16T11:08:00;10.45;;;3.53;;
69989;SDS011;57331;52.054;5.294;2024-01-16T11:10:33;12.98;;;3.28;;
69989;SDS011;57331;52.054;5.294;2024-01-16T11:13:02;11.70;;;3.40;;
69989;SDS011;57331;52.054;5.294;2024-01-16T11:15:31;14.18;;;4.22;;
69989;SDS011;57331;52.054;5.294;2024-01-16T11:18:01;12.93;;;3.47;;
69989;SDS011;57331;52.054;5.294;2024-01-16T11:20:31;7.45;;;3.20;;
69989;SDS011;57331;52.054;5.294;2024-01-16T11:23:21;8.70;;;3.50;;
69989;SDS011;57331;52.054;5.294;2024-01-16T11:25:48;8.30;;;3.45;;
69989;SDS011;57331;52.054;5.294;2024-01-16T11:28:15;8.27;;;3.58;;
69989;SDS011;57331;52.054;5.294;2024-01-16T11:30:42;9.13;;;3.40;;
69989;SDS011;57331;52.054;5.294;2024-01-16T11:33:41;9.43;;;3.03;;
69989;SDS011;57331;52.054;5.294;2024-01-16T11:36:36;5.88;;;2.83;;
69989;SDS011;57331;52.054;5.294;2024-01-16T11:39:10;9.20;;;3.00;;
69989;SDS011;57331;52.054;5.294;2024-01-16T11:47:18;7.45;;;3.05;;
69989;SDS011;57331;52.054;5.294;2024-01-16T11:49:46;8.05;;;2.92;;
69989;SDS011;57331;52.054;5.294;2024-01-16T11:52:14;6.82;;;3.25;;
69989;SDS011;57331;52.054;5.294;2024-01-16T11:54:42;10.20;;;3.80;;
69989;SDS011;57331;52.054;5.294;2024-01-16T11:59:57;8.25;;;3.45;;
69989;SDS011;57331;52.054;5.294;2024-01-16T12:02:49;12.35;;;3.70;;
69989;SDS011;57331;52.054;5.294;2024-01-16T12:05:18;8.38;;;4.05;;
69989;SDS011;57331;52.054;5.294;2024-01-16T12:07:46;7.28;;;3.42;;
69989;SDS011;57331;52.054;5.294;2024-01-16T12:10:21;6.75;;;3.28;;
69989;SDS011;57331;52.054;5.294;2024-01-16T12:12:49;12.90;;;3.80;;
69989;SDS011;57331;52.054;5.294;2024-01-16T12:15:20;8.00;;;4.10;;
69989;SDS011;57331;52.054;5.294;2024-01-16T12:18:06;8.20;;;3.38;;
69989;SDS011;57331;52.054;5.294;2024-01-16T12:20:48;11.85;;;3.78;;
69989;SDS011;57331;52.054;5.294;2024-01-16T12:23:16;9.20;;;3.20;;
69989;SDS011;57331;52.054;5.294;2024-01-16T12:25:44;7.82;;;3.30;;
69989;SDS011;57331;52.054;5.294;2024-01-16T12:28:29;9.68;;;3.25;;
69989;SDS011;57331;52.054;5.294;2024-01-16T12:30:59;7.80;;;3.35;;
69989;SDS011;57331;52.054;5.294;2024-01-16T12:33:28;10.68;;;3.28;;
69989;SDS011;57331;52.054;5.294;2024-01-16T12:36:02;16.00;;;3.70;;
69989;SDS011;57331;52.054;5.294;2024-01-16T12:38:31;9.52;;;3.85;;
69989;SDS011;57331;52.054;5.294;2024-01-16T12:40:59;7.95;;;3.95;;
69989;SDS011;57331;52.054;5.294;2024-01-16T12:43:29;9.73;;;3.20;;
69989;SDS011;57331;52.054;5.294;2024-01-16T12:45:56;10.15;;;3.67;;
69989;SDS011;57331;52.054;5.294;2024-01-16T12:48:27;9.87;;;4.47;;
69989;SDS011;57331;52.054;5.294;2024-01-16T12:51:01;9.65;;;4.05;;
69989;SDS011;57331;52.054;5.294;2024-01-16T12:53:31;17.05;;;5.07;;
69989;SDS011;57331;52.054;5.294;2024-01-16T12:56:01;11.18;;;4.60;;
69989;SDS011;57331;52.054;5.294;2024-01-16T12:58:32;10.48;;;4.60;;
69989;SDS011;57331;52.054;5.294;2024-01-16T13:04:05;12.13;;;4.13;;
69989;SDS011;57331;52.054;5.294;2024-01-16T13:06:32;8.85;;;4.22;;
69989;SDS011;57331;52.054;5.294;2024-01-16T13:09:09;12.20;;;3.92;;
69989;SDS011;57331;52.054;5.294;2024-01-16T13:11:45;8.88;;;3.75;;
69989;SDS011;57331;52.054;5.294;2024-01-16T13:14:12;9.03;;;4.00;;
69989;SDS011;57331;52.054;5.294;2024-01-16T13:16:39;14.07;;;4.22;;
69989;SDS011;57331;52.054;5.294;2024-01-16T13:19:06;9.80;;;3.60;;
69989;SDS011;57331;52.054;5.294;2024-01-16T13:21:36;9.43;;;4.00;;
69989;SDS011;57331;52.054;5.294;2024-01-16T13:24:04;9.93;;;3.95;;
69989;SDS011;57331;52.054;5.294;2024-01-16T13:26:31;18.00;;;3.93;;
69989;SDS011;57331;52.054;5.294;2024-01-16T13:28:59;7.47;;;3.70;;
69989;SDS011;57331;52.054;5.294;2024-01-16T13:31:26;10.80;;;4.28;;
69989;SDS011;57331;52.054;5.294;2024-01-16T13:33:54;10.18;;;3.30;;
69989;SDS011;57331;52.054;5.294;2024-01-16T13:36:23;8.52;;;4.38;;
69989;SDS011;57331;52.054;5.294;2024-01-16T13:39:10;8.13;;;3.50;;
69989;SDS011;57331;52.054;5.294;2024-01-16T13:41:39;8.73;;;4.03;;
69989;SDS011;57331;52.054;5.294;2024-01-16T13:44:07;11.68;;;4.30;;
69989;SDS011;57331;52.054;5.294;2024-01-16T13:46:34;7.78;;;3.80;;
69989;SDS011;57331;52.054;5.294;2024-01-16T13:49:22;8.20;;;3.67;;
69989;SDS011;57331;52.054;5.294;2024-01-16T13:51:50;8.13;;;3.55;;
69989;SDS011;57331;52.054;5.294;2024-01-16T13:54:17;5.22;;;2.83;;
69989;SDS011;57331;52.054;5.294;2024-01-16T13:56:45;8.38;;;3.30;;
69989;SDS011;57331;52.054;5.294;2024-01-16T13:59:31;7.97;;;3.70;;
69989;SDS011;57331;52.054;5.294;2024-01-16T14:01:58;8.82;;;3.75;;
69989;SDS011;57331;52.054;5.294;2024-01-16T14:04:26;9.97;;;3.83;;
69989;SDS011;57331;52.054;5.294;2024-01-16T14:06:53;10.45;;;4.00;;
69989;SDS011;57331;52.054;5.294;2024-01-16T14:09:38;10.23;;;3.85;;
69989;SDS011;57331;52.054;5.294;2024-01-16T14:12:08;9.35;;;3.65;;
69989;SDS011;57331;52.054;5.294;2024-01-16T14:14:35;7.45;;;3.45;;
69989;SDS011;57331;52.054;5.294;2024-01-16T14:17:05;9.20;;;4.43;;
69989;SDS011;57331;52.054;5.294;2024-01-16T14:19:35;9.90;;;3.85;;
69989;SDS011;57331;52.054;5.294;2024-01-16T14:22:03;10.00;;;3.97;;
69989;SDS011;57331;52.054;5.294;2024-01-16T14:24:30;8.43;;;3.80;;
69989;SDS011;57331;52.054;5.294;2024-01-16T14:26:58;9.30;;;3.20;;
69989;SDS011;57331;52.054;5.294;2024-01-16T14:29:25;9.07;;;3.57;;
69989;SDS011;57331;52.054;5.294;2024-01-16T14:31:53;10.80;;;3.65;;
69989;SDS011;57331;52.054;5.294;2024-01-16T14:34:23;8.85;;;3.10;;
69989;SDS011;57331;52.054;5.294;2024-01-16T14:36:51;12.20;;;3.20;;
69989;SDS011;57331;52.054;5.294;2024-01-16T14:39:20;11.45;;;3.55;;
69989;SDS011;57331;52.054;5.294;2024-01-16T14:41:53;17.10;;;3.93;;
69989;SDS011;57331;52.054;5.294;2024-01-16T14:44:20;9.63;;;3.17;;
69989;SDS011;57331;52.054;5.294;2024-01-16T14:46:48;10.77;;;3.60;;
69989;SDS011;57331;52.054;5.294;2024-01-16T14:49:19;19.85;;;7.15;;
69989;SDS011;57331;52.054;5.294;2024-01-16T14:51:47;11.55;;;3.45;;
69989;SDS011;57331;52.054;5.294;2024-01-16T14:54:15;9.60;;;3.07;;
69989;SDS011;57331;52.054;5.294;2024-01-16T14:56:42;11.13;;;3.58;;
69989;SDS011;57331;52.054;5.294;2024-01-16T14:59:09;11.82;;;3.10;;
69989;SDS011;57331;52.054;5.294;2024-01-16T15:01:41;10.02;;;2.95;;
69989;SDS011;57331;52.054;5.294;2024-01-16T15:04:09;13.98;;;4.00;;
69989;SDS011;57331;52.054;5.294;2024-01-16T15:06:38;7.40;;;2.97;;
69989;SDS011;57331;52.054;5.294;2024-01-16T15:09:06;9.65;;;2.63;;